Aviation Digital Data Service (ADDS)

Output produced by METARs form (1346 UTC 01 October 2016)
found at http://www.aviationweather.gov/adds/metars/
 
METAR text: EPRZ 011330Z 19008KT 160V220 CAVOK 24/10 Q1014
Conditions at: EPRZ (RZESZOW/JASIONKA, PL) observed 1330 UTC 01 October 2016
Temperature: 24.0°C (75°F)
Dewpoint: 10.0°C (50°F) [RH = 41%]
Pressure (altimeter): 29.94 inches Hg (1014.0 mb)
Winds: from the S (190 degrees) at 9 MPH (8 knots; 4.2 m/s)
Visibility: 6 or more miles (10+ km)
Ceiling: ceiling and visibility are OK
Clouds: unknown
Weather: no significant weather observed at this time

Forecast for: EPRZ (RZESZOW/JASIONKA, PL)
Text: TAF EPRZ 011130Z 0112/0212 18010KT CAVOK
Forecast period: 1200 UTC 01 October 2016 to 1200 UTC 02 October 2016
Forecast type: FROM: standard forecast or significant change
Winds: from the S (180 degrees) at 12 MPH (10 knots; 5.2 m/s)
Visibility: 6 or more miles (10+ km)
Clouds: not forecast
Weather: NSW  (no significant weather)